sensor_id;sensor_type;location;lat;lon;timestamp;P1;durP1;ratioP1;P2;durP2;ratioP2
78927;SDS011;68322;22.726;113.540;2023-04-08T00:01:42;30.42;;;10.77;;
78927;SDS011;68322;22.726;113.540;2023-04-08T00:04:09;27.33;;;10.38;;
78927;SDS011;68322;22.726;113.540;2023-04-08T00:06:38;29.55;;;10.40;;
78927;SDS011;68322;22.726;113.540;2023-04-08T00:09:05;36.97;;;12.35;;
78927;SDS011;68322;22.726;113.540;2023-04-08T00:11:32;28.77;;;11.40;;
78927;SDS011;68322;22.726;113.540;2023-04-08T00:13:59;21.63;;;10.43;;
78927;SDS011;68322;22.726;113.540;2023-04-08T00:16:26;35.60;;;13.48;;
78927;SDS011;68322;22.726;113.540;2023-04-08T00:18:52;37.22;;;12.63;;
78927;SDS011;68322;22.726;113.540;2023-04-08T00:21:19;33.53;;;11.95;;
78927;SDS011;68322;22.726;113.540;2023-04-08T00:23:46;19.15;;;8.48;;
78927;SDS011;68322;22.726;113.540;2023-04-08T00:26:13;28.60;;;10.95;;
78927;SDS011;68322;22.726;113.540;2023-04-08T00:28:40;33.28;;;12.70;;
78927;SDS011;68322;22.726;113.540;2023-04-08T00:31:07;26.23;;;11.40;;
78927;SDS011;68322;22.726;113.540;2023-04-08T00:33:34;22.75;;;10.73;;
78927;SDS011;68322;22.726;113.540;2023-04-08T00:36:01;31.70;;;10.93;;
78927;SDS011;68322;22.726;113.540;2023-04-08T00:38:31;22.52;;;10.00;;
78927;SDS011;68322;22.726;113.540;2023-04-08T00:40:57;28.80;;;11.15;;
78927;SDS011;68322;22.726;113.540;2023-04-08T00:43:24;31.75;;;11.25;;
78927;SDS011;68322;22.726;113.540;2023-04-08T00:45:51;24.48;;;9.93;;
78927;SDS011;68322;22.726;113.540;2023-04-08T00:48:18;21.65;;;10.68;;
78927;SDS011;68322;22.726;113.540;2023-04-08T00:50:44;20.48;;;9.68;;
78927;SDS011;68322;22.726;113.540;2023-04-08T00:53:13;27.52;;;10.63;;
78927;SDS011;68322;22.726;113.540;2023-04-08T00:55:41;30.67;;;10.63;;
78927;SDS011;68322;22.726;113.540;2023-04-08T00:58:08;27.38;;;9.88;;
78927;SDS011;68322;22.726;113.540;2023-04-08T01:00:34;22.17;;;9.57;;
78927;SDS011;68322;22.726;113.540;2023-04-08T01:08:10;26.20;;;10.05;;
78927;SDS011;68322;22.726;113.540;2023-04-08T01:10:38;22.80;;;9.88;;
78927;SDS011;68322;22.726;113.540;2023-04-08T01:13:08;31.90;;;12.50;;
78927;SDS011;68322;22.726;113.540;2023-04-08T01:15:37;26.70;;;12.30;;
78927;SDS011;68322;22.726;113.540;2023-04-08T01:18:08;26.85;;;9.98;;
78927;SDS011;68322;22.726;113.540;2023-04-08T01:20:36;29.75;;;10.57;;
78927;SDS011;68322;22.726;113.540;2023-04-08T01:23:24;23.60;;;10.23;;
78927;SDS011;68322;22.726;113.540;2023-04-08T01:25:57;33.70;;;11.65;;
78927;SDS011;68322;22.726;113.540;2023-04-08T01:28:25;36.50;;;11.95;;
78927;SDS011;68322;22.726;113.540;2023-04-08T01:30:54;28.27;;;11.25;;
78927;SDS011;68322;22.726;113.540;2023-04-08T01:33:22;31.17;;;10.68;;
78927;SDS011;68322;22.726;113.540;2023-04-08T01:35:50;26.55;;;10.88;;
78927;SDS011;68322;22.726;113.540;2023-04-08T01:38:19;38.00;;;12.23;;
78927;SDS011;68322;22.726;113.540;2023-04-08T01:40:48;27.10;;;12.23;;
78927;SDS011;68322;22.726;113.540;2023-04-08T01:43:17;34.20;;;11.63;;
78927;SDS011;68322;22.726;113.540;2023-04-08T01:45:45;30.80;;;11.82;;
78927;SDS011;68322;22.726;113.540;2023-04-08T01:48:12;26.63;;;11.13;;
78927;SDS011;68322;22.726;113.540;2023-04-08T01:50:43;28.27;;;9.32;;
78927;SDS011;68322;22.726;113.540;2023-04-08T01:53:10;28.20;;;12.27;;
78927;SDS011;68322;22.726;113.540;2023-04-08T01:55:39;28.40;;;9.80;;
78927;SDS011;68322;22.726;113.540;2023-04-08T01:58:06;27.67;;;10.82;;
78927;SDS011;68322;22.726;113.540;2023-04-08T02:00:34;32.55;;;11.80;;
78927;SDS011;68322;22.726;113.540;2023-04-08T02:03:02;34.92;;;9.90;;
78927;SDS011;68322;22.726;113.540;2023-04-08T02:05:31;28.77;;;11.55;;
78927;SDS011;68322;22.726;113.540;2023-04-08T02:07:59;26.40;;;10.30;;
78927;SDS011;68322;22.726;113.540;2023-04-08T02:10:25;21.23;;;10.40;;
78927;SDS011;68322;22.726;113.540;2023-04-08T02:12:52;27.70;;;10.27;;
78927;SDS011;68322;22.726;113.540;2023-04-08T02:15:23;31.48;;;10.68;;
78927;SDS011;68322;22.726;113.540;2023-04-08T02:17:56;26.42;;;10.48;;
78927;SDS011;68322;22.726;113.540;2023-04-08T02:20:30;34.72;;;12.48;;
78927;SDS011;68322;22.726;113.540;2023-04-08T02:25:55;27.08;;;9.77;;
78927;SDS011;68322;22.726;113.540;2023-04-08T02:28:22;25.08;;;11.70;;
78927;SDS011;68322;22.726;113.540;2023-04-08T02:30:50;28.80;;;10.35;;
78927;SDS011;68322;22.726;113.540;2023-04-08T02:33:20;28.75;;;11.50;;
78927;SDS011;68322;22.726;113.540;2023-04-08T02:35:47;31.80;;;11.35;;
78927;SDS011;68322;22.726;113.540;2023-04-08T02:38:15;30.35;;;12.48;;
78927;SDS011;68322;22.726;113.540;2023-04-08T02:43:09;25.70;;;11.60;;
78927;SDS011;68322;22.726;113.540;2023-04-08T02:45:45;44.47;;;11.65;;
78927;SDS011;68322;22.726;113.540;2023-04-08T02:48:11;34.08;;;10.18;;
78927;SDS011;68322;22.726;113.540;2023-04-08T02:50:38;45.63;;;12.13;;
78927;SDS011;68322;22.726;113.540;2023-04-08T02:53:06;30.50;;;10.90;;
78927;SDS011;68322;22.726;113.540;2023-04-08T02:55:35;32.17;;;11.35;;
78927;SDS011;68322;22.726;113.540;2023-04-08T02:58:05;36.17;;;11.60;;
78927;SDS011;68322;22.726;113.540;2023-04-08T03:00:31;28.25;;;11.50;;
78927;SDS011;68322;22.726;113.540;2023-04-08T03:02:58;30.13;;;10.55;;
78927;SDS011;68322;22.726;113.540;2023-04-08T03:05:26;35.35;;;10.57;;
78927;SDS011;68322;22.726;113.540;2023-04-08T03:07:52;36.60;;;12.18;;
78927;SDS011;68322;22.726;113.540;2023-04-08T03:10:22;25.25;;;9.65;;
78927;SDS011;68322;22.726;113.540;2023-04-08T03:12:48;28.40;;;9.23;;
78927;SDS011;68322;22.726;113.540;2023-04-08T03:15:15;28.50;;;9.02;;
78927;SDS011;68322;22.726;113.540;2023-04-08T03:17:42;26.35;;;11.25;;
78927;SDS011;68322;22.726;113.540;2023-04-08T03:20:09;31.95;;;10.45;;
78927;SDS011;68322;22.726;113.540;2023-04-08T03:22:36;35.15;;;11.35;;
78927;SDS011;68322;22.726;113.540;2023-04-08T03:25:02;31.02;;;9.82;;
78927;SDS011;68322;22.726;113.540;2023-04-08T03:27:29;26.38;;;9.35;;
78927;SDS011;68322;22.726;113.540;2023-04-08T03:29:56;45.17;;;11.60;;
78927;SDS011;68322;22.726;113.540;2023-04-08T03:32:23;33.33;;;10.20;;
78927;SDS011;68322;22.726;113.540;2023-04-08T03:34:52;24.65;;;10.00;;
78927;SDS011;68322;22.726;113.540;2023-04-08T03:37:19;30.85;;;10.23;;
78927;SDS011;68322;22.726;113.540;2023-04-08T03:39:46;32.85;;;9.95;;
78927;SDS011;68322;22.726;113.540;2023-04-08T03:42:12;37.25;;;9.98;;
78927;SDS011;68322;22.726;113.540;2023-04-08T03:44:39;25.92;;;10.40;;
78927;SDS011;68322;22.726;113.540;2023-04-08T03:47:06;27.27;;;9.45;;
78927;SDS011;68322;22.726;113.540;2023-04-08T03:49:33;27.00;;;9.35;;
78927;SDS011;68322;22.726;113.540;2023-04-08T03:51:59;29.60;;;11.60;;
78927;SDS011;68322;22.726;113.540;2023-04-08T03:54:26;30.38;;;11.15;;
78927;SDS011;68322;22.726;113.540;2023-04-08T03:56:53;36.90;;;11.10;;
78927;SDS011;68322;22.726;113.540;2023-04-08T03:59:20;38.15;;;11.98;;
78927;SDS011;68322;22.726;113.540;2023-04-08T04:01:47;34.10;;;10.82;;
78927;SDS011;68322;22.726;113.540;2023-04-08T04:04:15;32.50;;;10.00;;
78927;SDS011;68322;22.726;113.540;2023-04-08T04:06:42;28.23;;;10.65;;
78927;SDS011;68322;22.726;113.540;2023-04-08T04:09:09;31.30;;;11.57;;
78927;SDS011;68322;22.726;113.540;2023-04-08T04:11:36;24.13;;;10.60;;
78927;SDS011;68322;22.726;113.540;2023-04-08T04:14:02;31.90;;;12.45;;
78927;SDS011;68322;22.726;113.540;2023-04-08T04:16:29;38.13;;;12.40;;
78927;SDS011;68322;22.726;113.540;2023-04-08T04:18:58;35.85;;;11.25;;
78927;SDS011;68322;22.726;113.540;2023-04-08T04:21:25;33.08;;;12.38;;
78927;SDS011;68322;22.726;113.540;2023-04-08T04:23:52;29.48;;;10.20;;
78927;SDS011;68322;22.726;113.540;2023-04-08T04:26:18;38.03;;;12.30;;
78927;SDS011;68322;22.726;113.540;2023-04-08T04:28:45;28.50;;;11.25;;
78927;SDS011;68322;22.726;113.540;2023-04-08T04:31:21;36.30;;;11.10;;
78927;SDS011;68322;22.726;113.540;2023-04-08T04:33:50;29.15;;;10.55;;
78927;SDS011;68322;22.726;113.540;2023-04-08T04:36:17;35.17;;;10.68;;
78927;SDS011;68322;22.726;113.540;2023-04-08T04:38:44;30.58;;;11.38;;
78927;SDS011;68322;22.726;113.540;2023-04-08T04:41:13;24.13;;;9.45;;
78927;SDS011;68322;22.726;113.540;2023-04-08T04:43:39;39.30;;;11.38;;
78927;SDS011;68322;22.726;113.540;2023-04-08T04:46:06;45.00;;;13.13;;
78927;SDS011;68322;22.726;113.540;2023-04-08T04:48:34;33.63;;;11.30;;
78927;SDS011;68322;22.726;113.540;2023-04-08T04:51:01;36.65;;;11.68;;
78927;SDS011;68322;22.726;113.540;2023-04-08T04:53:28;34.13;;;11.00;;
78927;SDS011;68322;22.726;113.540;2023-04-08T04:55:55;31.23;;;11.85;;
78927;SDS011;68322;22.726;113.540;2023-04-08T04:58:21;26.77;;;10.27;;
78927;SDS011;68322;22.726;113.540;2023-04-08T05:00:48;31.30;;;12.00;;
78927;SDS011;68322;22.726;113.540;2023-04-08T05:03:17;35.35;;;11.55;;
78927;SDS011;68322;22.726;113.540;2023-04-08T05:05:44;35.30;;;11.93;;
78927;SDS011;68322;22.726;113.540;2023-04-08T05:08:11;31.73;;;10.82;;
78927;SDS011;68322;22.726;113.540;2023-04-08T05:10:39;41.40;;;12.18;;
78927;SDS011;68322;22.726;113.540;2023-04-08T05:13:06;39.75;;;12.00;;
78927;SDS011;68322;22.726;113.540;2023-04-08T05:15:33;43.10;;;11.55;;
78927;SDS011;68322;22.726;113.540;2023-04-08T05:18:00;41.40;;;11.63;;
78927;SDS011;68322;22.726;113.540;2023-04-08T05:20:27;29.13;;;10.55;;
78927;SDS011;68322;22.726;113.540;2023-04-08T05:22:54;32.35;;;11.23;;
78927;SDS011;68322;22.726;113.540;2023-04-08T05:25:20;33.40;;;11.95;;
78927;SDS011;68322;22.726;113.540;2023-04-08T05:27:47;33.67;;;12.68;;
78927;SDS011;68322;22.726;113.540;2023-04-08T05:30:15;31.80;;;11.18;;
78927;SDS011;68322;22.726;113.540;2023-04-08T05:32:43;34.13;;;11.48;;
78927;SDS011;68322;22.726;113.540;2023-04-08T05:35:13;34.15;;;12.23;;
78927;SDS011;68322;22.726;113.540;2023-04-08T05:37:42;31.45;;;9.80;;
78927;SDS011;68322;22.726;113.540;2023-04-08T05:40:11;40.38;;;11.57;;
78927;SDS011;68322;22.726;113.540;2023-04-08T05:42:38;32.25;;;11.63;;
78927;SDS011;68322;22.726;113.540;2023-04-08T05:47:39;25.27;;;10.60;;
78927;SDS011;68322;22.726;113.540;2023-04-08T05:50:09;29.75;;;11.65;;
78927;SDS011;68322;22.726;113.540;2023-04-08T05:52:35;33.17;;;11.43;;
78927;SDS011;68322;22.726;113.540;2023-04-08T05:55:04;25.15;;;11.00;;
78927;SDS011;68322;22.726;113.540;2023-04-08T05:57:32;33.92;;;10.95;;
78927;SDS011;68322;22.726;113.540;2023-04-08T05:59:59;36.63;;;12.20;;
78927;SDS011;68322;22.726;113.540;2023-04-08T06:02:25;35.58;;;11.98;;
78927;SDS011;68322;22.726;113.540;2023-04-08T06:04:52;30.52;;;11.00;;
78927;SDS011;68322;22.726;113.540;2023-04-08T06:07:22;35.90;;;11.50;;
78927;SDS011;68322;22.726;113.540;2023-04-08T06:09:52;30.00;;;11.10;;
78927;SDS011;68322;22.726;113.540;2023-04-08T06:12:19;46.13;;;12.68;;
78927;SDS011;68322;22.726;113.540;2023-04-08T06:14:46;34.63;;;13.15;;
78927;SDS011;68322;22.726;113.540;2023-04-08T06:17:14;40.13;;;11.90;;
78927;SDS011;68322;22.726;113.540;2023-04-08T06:19:41;33.33;;;10.23;;
78927;SDS011;68322;22.726;113.540;2023-04-08T06:22:08;42.10;;;12.70;;
78927;SDS011;68322;22.726;113.540;2023-04-08T06:24:39;37.15;;;12.38;;
78927;SDS011;68322;22.726;113.540;2023-04-08T06:27:06;33.78;;;12.00;;
78927;SDS011;68322;22.726;113.540;2023-04-08T06:29:32;34.13;;;11.27;;
78927;SDS011;68322;22.726;113.540;2023-04-08T06:32:01;37.67;;;11.23;;
78927;SDS011;68322;22.726;113.540;2023-04-08T06:34:32;35.53;;;10.98;;
78927;SDS011;68322;22.726;113.540;2023-04-08T06:36:58;39.85;;;13.43;;
78927;SDS011;68322;22.726;113.540;2023-04-08T06:39:25;30.42;;;12.63;;
78927;SDS011;68322;22.726;113.540;2023-04-08T06:41:52;31.73;;;12.93;;
78927;SDS011;68322;22.726;113.540;2023-04-08T06:44:19;40.30;;;11.85;;
78927;SDS011;68322;22.726;113.540;2023-04-08T06:46:46;37.95;;;13.85;;
78927;SDS011;68322;22.726;113.540;2023-04-08T06:49:13;41.83;;;13.32;;
78927;SDS011;68322;22.726;113.540;2023-04-08T06:51:40;30.30;;;11.82;;
78927;SDS011;68322;22.726;113.540;2023-04-08T06:54:06;30.08;;;11.40;;
78927;SDS011;68322;22.726;113.540;2023-04-08T06:56:36;39.72;;;12.98;;
78927;SDS011;68322;22.726;113.540;2023-04-08T06:59:03;31.00;;;11.30;;
78927;SDS011;68322;22.726;113.540;2023-04-08T07:01:31;38.45;;;12.38;;
78927;SDS011;68322;22.726;113.540;2023-04-08T07:03:58;37.83;;;12.48;;
78927;SDS011;68322;22.726;113.540;2023-04-08T07:06:26;37.03;;;12.05;;
78927;SDS011;68322;22.726;113.540;2023-04-08T07:08:56;34.35;;;12.02;;
78927;SDS011;68322;22.726;113.540;2023-04-08T07:11:23;31.67;;;10.80;;
78927;SDS011;68322;22.726;113.540;2023-04-08T07:13:50;32.67;;;12.35;;
78927;SDS011;68322;22.726;113.540;2023-04-08T07:16:17;27.10;;;10.48;;
78927;SDS011;68322;22.726;113.540;2023-04-08T07:18:44;37.67;;;11.98;;
78927;SDS011;68322;22.726;113.540;2023-04-08T07:21:12;33.60;;;11.75;;
78927;SDS011;68322;22.726;113.540;2023-04-08T07:23:39;34.58;;;11.75;;
78927;SDS011;68322;22.726;113.540;2023-04-08T07:26:06;29.08;;;11.82;;
78927;SDS011;68322;22.726;113.540;2023-04-08T07:28:32;35.53;;;12.13;;
78927;SDS011;68322;22.726;113.540;2023-04-08T07:31:09;35.00;;;12.07;;
78927;SDS011;68322;22.726;113.540;2023-04-08T07:33:35;36.00;;;11.00;;
78927;SDS011;68322;22.726;113.540;2023-04-08T07:36:02;33.10;;;13.65;;
78927;SDS011;68322;22.726;113.540;2023-04-08T07:38:30;37.17;;;13.00;;
78927;SDS011;68322;22.726;113.540;2023-04-08T07:40:58;32.28;;;11.07;;
78927;SDS011;68322;22.726;113.540;2023-04-08T07:43:25;43.90;;;11.77;;
78927;SDS011;68322;22.726;113.540;2023-04-08T07:45:52;34.17;;;12.73;;
78927;SDS011;68322;22.726;113.540;2023-04-08T07:48:19;38.08;;;13.18;;
78927;SDS011;68322;22.726;113.540;2023-04-08T07:50:49;28.40;;;11.65;;
78927;SDS011;68322;22.726;113.540;2023-04-08T07:53:15;28.15;;;14.02;;
78927;SDS011;68322;22.726;113.540;2023-04-08T07:55:43;35.33;;;11.75;;
78927;SDS011;68322;22.726;113.540;2023-04-08T07:58:09;34.33;;;12.02;;
78927;SDS011;68322;22.726;113.540;2023-04-08T08:00:38;33.35;;;12.05;;
78927;SDS011;68322;22.726;113.540;2023-04-08T08:03:05;34.60;;;12.82;;
78927;SDS011;68322;22.726;113.540;2023-04-08T08:05:32;33.45;;;12.88;;
78927;SDS011;68322;22.726;113.540;2023-04-08T08:07:59;36.60;;;12.88;;
78927;SDS011;68322;22.726;113.540;2023-04-08T08:10:26;38.45;;;12.90;;
78927;SDS011;68322;22.726;113.540;2023-04-08T08:12:55;31.58;;;13.68;;
78927;SDS011;68322;22.726;113.540;2023-04-08T08:15:22;42.58;;;13.50;;
78927;SDS011;68322;22.726;113.540;2023-04-08T08:17:49;32.92;;;13.15;;
78927;SDS011;68322;22.726;113.540;2023-04-08T08:20:16;35.40;;;13.18;;
78927;SDS011;68322;22.726;113.540;2023-04-08T08:22:43;45.47;;;12.85;;
78927;SDS011;68322;22.726;113.540;2023-04-08T08:25:10;35.75;;;12.55;;
78927;SDS011;68322;22.726;113.540;2023-04-08T08:27:37;35.33;;;11.80;;
78927;SDS011;68322;22.726;113.540;2023-04-08T08:30:07;35.42;;;13.00;;
78927;SDS011;68322;22.726;113.540;2023-04-08T08:32:34;30.38;;;13.02;;
78927;SDS011;68322;22.726;113.540;2023-04-08T08:35:02;35.97;;;12.95;;
78927;SDS011;68322;22.726;113.540;2023-04-08T08:37:29;34.00;;;12.98;;
78927;SDS011;68322;22.726;113.540;2023-04-08T08:39:56;31.52;;;12.32;;
78927;SDS011;68322;22.726;113.540;2023-04-08T08:42:23;39.58;;;13.70;;
78927;SDS011;68322;22.726;113.540;2023-04-08T08:44:50;36.13;;;13.07;;
78927;SDS011;68322;22.726;113.540;2023-04-08T08:47:19;33.10;;;11.65;;
78927;SDS011;68322;22.726;113.540;2023-04-08T08:49:46;34.40;;;13.75;;
78927;SDS011;68322;22.726;113.540;2023-04-08T08:52:16;40.38;;;12.52;;
78927;SDS011;68322;22.726;113.540;2023-04-08T08:54:44;34.67;;;12.23;;
78927;SDS011;68322;22.726;113.540;2023-04-08T08:59:37;29.75;;;11.70;;
78927;SDS011;68322;22.726;113.540;2023-04-08T09:02:05;27.63;;;11.85;;
78927;SDS011;68322;22.726;113.540;2023-04-08T09:04:55;27.10;;;11.75;;
78927;SDS011;68322;22.726;113.540;2023-04-08T09:07:46;38.65;;;12.10;;
78927;SDS011;68322;22.726;113.540;2023-04-08T09:12:56;37.33;;;12.23;;
78927;SDS011;68322;22.726;113.540;2023-04-08T09:15:23;33.97;;;11.98;;
78927;SDS011;68322;22.726;113.540;2023-04-08T09:17:50;31.05;;;10.73;;
78927;SDS011;68322;22.726;113.540;2023-04-08T09:20:17;31.50;;;12.30;;
78927;SDS011;68322;22.726;113.540;2023-04-08T09:25:31;31.27;;;10.63;;
78927;SDS011;68322;22.726;113.540;2023-04-08T09:27:58;30.20;;;10.88;;
78927;SDS011;68322;22.726;113.540;2023-04-08T09:30:25;33.97;;;11.23;;
78927;SDS011;68322;22.726;113.540;2023-04-08T09:32:53;28.58;;;10.63;;
78927;SDS011;68322;22.726;113.540;2023-04-08T09:35:21;31.35;;;11.18;;
78927;SDS011;68322;22.726;113.540;2023-04-08T09:37:48;34.08;;;10.93;;
78927;SDS011;68322;22.726;113.540;2023-04-08T09:40:15;31.73;;;10.70;;
78927;SDS011;68322;22.726;113.540;2023-04-08T09:42:46;37.17;;;11.98;;
78927;SDS011;68322;22.726;113.540;2023-04-08T09:45:16;36.97;;;10.68;;
78927;SDS011;68322;22.726;113.540;2023-04-08T09:50:09;33.72;;;10.57;;
78927;SDS011;68322;22.726;113.540;2023-04-08T09:52:43;30.65;;;11.00;;
78927;SDS011;68322;22.726;113.540;2023-04-08T09:55:11;26.52;;;10.38;;
78927;SDS011;68322;22.726;113.540;2023-04-08T09:58:06;33.90;;;11.02;;
78927;SDS011;68322;22.726;113.540;2023-04-08T10:00:36;24.73;;;10.63;;
78927;SDS011;68322;22.726;113.540;2023-04-08T10:05:51;39.17;;;10.68;;
78927;SDS011;68322;22.726;113.540;2023-04-08T10:08:21;25.92;;;10.68;;
78927;SDS011;68322;22.726;113.540;2023-04-08T10:10:48;37.15;;;11.88;;
78927;SDS011;68322;22.726;113.540;2023-04-08T10:13:15;27.95;;;8.65;;
78927;SDS011;68322;22.726;113.540;2023-04-08T10:15:42;39.88;;;10.35;;
78927;SDS011;68322;22.726;113.540;2023-04-08T10:20:47;25.90;;;10.60;;
78927;SDS011;68322;22.726;113.540;2023-04-08T10:23:15;25.13;;;10.35;;
78927;SDS011;68322;22.726;113.540;2023-04-08T10:38:21;35.67;;;10.80;;
78927;SDS011;68322;22.726;113.540;2023-04-08T10:40:48;32.38;;;11.85;;
78927;SDS011;68322;22.726;113.540;2023-04-08T10:43:18;29.45;;;11.90;;
78927;SDS011;68322;22.726;113.540;2023-04-08T10:45:45;27.52;;;9.45;;
78927;SDS011;68322;22.726;113.540;2023-04-08T10:48:16;32.22;;;11.10;;
78927;SDS011;68322;22.726;113.540;2023-04-08T10:51:00;37.72;;;10.65;;
78927;SDS011;68322;22.726;113.540;2023-04-08T10:56:15;36.85;;;12.48;;
78927;SDS011;68322;22.726;113.540;2023-04-08T10:59:01;35.33;;;12.50;;
78927;SDS011;68322;22.726;113.540;2023-04-08T11:01:36;32.03;;;13.18;;
78927;SDS011;68322;22.726;113.540;2023-04-08T11:04:24;33.13;;;13.27;;
78927;SDS011;68322;22.726;113.540;2023-04-08T11:06:52;41.17;;;15.25;;
78927;SDS011;68322;22.726;113.540;2023-04-08T11:09:19;40.08;;;14.77;;
78927;SDS011;68322;22.726;113.540;2023-04-08T11:11:46;36.33;;;14.23;;
78927;SDS011;68322;22.726;113.540;2023-04-08T11:14:13;35.13;;;14.15;;
78927;SDS011;68322;22.726;113.540;2023-04-08T11:16:41;33.45;;;15.13;;
78927;SDS011;68322;22.726;113.540;2023-04-08T11:19:09;38.38;;;15.18;;
78927;SDS011;68322;22.726;113.540;2023-04-08T11:21:35;44.85;;;15.23;;
78927;SDS011;68322;22.726;113.540;2023-04-08T11:24:09;33.70;;;13.60;;
78927;SDS011;68322;22.726;113.540;2023-04-08T11:26:38;39.67;;;15.07;;
78927;SDS011;68322;22.726;113.540;2023-04-08T11:29:05;38.65;;;15.68;;
78927;SDS011;68322;22.726;113.540;2023-04-08T11:31:37;38.95;;;15.02;;
78927;SDS011;68322;22.726;113.540;2023-04-08T11:34:03;47.85;;;14.98;;
78927;SDS011;68322;22.726;113.540;2023-04-08T11:36:30;31.25;;;12.93;;
78927;SDS011;68322;22.726;113.540;2023-04-08T11:39:05;45.15;;;15.77;;
78927;SDS011;68322;22.726;113.540;2023-04-08T11:41:35;38.60;;;13.50;;
78927;SDS011;68322;22.726;113.540;2023-04-08T11:44:05;30.38;;;13.52;;
78927;SDS011;68322;22.726;113.540;2023-04-08T11:46:32;34.08;;;13.80;;
78927;SDS011;68322;22.726;113.540;2023-04-08T11:51:26;37.90;;;13.10;;
78927;SDS011;68322;22.726;113.540;2023-04-08T11:53:53;34.70;;;12.73;;
78927;SDS011;68322;22.726;113.540;2023-04-08T11:56:21;40.08;;;13.23;;
78927;SDS011;68322;22.726;113.540;2023-04-08T11:58:48;37.10;;;14.05;;
78927;SDS011;68322;22.726;113.540;2023-04-08T12:01:17;54.92;;;13.73;;
78927;SDS011;68322;22.726;113.540;2023-04-08T12:03:56;39.38;;;13.82;;
78927;SDS011;68322;22.726;113.540;2023-04-08T12:06:23;29.52;;;13.07;;
78927;SDS011;68322;22.726;113.540;2023-04-08T12:08:51;34.00;;;11.85;;
78927;SDS011;68322;22.726;113.540;2023-04-08T12:11:18;36.22;;;12.90;;
78927;SDS011;68322;22.726;113.540;2023-04-08T12:13:45;32.72;;;13.45;;
78927;SDS011;68322;22.726;113.540;2023-04-08T12:18:42;28.42;;;12.55;;
78927;SDS011;68322;22.726;113.540;2023-04-08T12:21:09;39.22;;;13.07;;
78927;SDS011;68322;22.726;113.540;2023-04-08T12:23:36;43.45;;;15.93;;
78927;SDS011;68322;22.726;113.540;2023-04-08T12:26:03;29.75;;;12.32;;
78927;SDS011;68322;22.726;113.540;2023-04-08T12:28:29;33.10;;;12.35;;
78927;SDS011;68322;22.726;113.540;2023-04-08T12:30:59;31.00;;;13.60;;
78927;SDS011;68322;22.726;113.540;2023-04-08T12:33:26;35.60;;;14.75;;
78927;SDS011;68322;22.726;113.540;2023-04-08T12:35:52;37.05;;;12.70;;
78927;SDS011;68322;22.726;113.540;2023-04-08T12:38:19;35.78;;;13.80;;
78927;SDS011;68322;22.726;113.540;2023-04-08T12:40:48;40.38;;;14.57;;
78927;SDS011;68322;22.726;113.540;2023-04-08T12:43:15;40.90;;;14.57;;
78927;SDS011;68322;22.726;113.540;2023-04-08T12:45:41;37.30;;;14.95;;
78927;SDS011;68322;22.726;113.540;2023-04-08T12:48:08;36.67;;;13.50;;
78927;SDS011;68322;22.726;113.540;2023-04-08T12:50:35;34.38;;;13.90;;
78927;SDS011;68322;22.726;113.540;2023-04-08T12:53:02;37.90;;;13.98;;
78927;SDS011;68322;22.726;113.540;2023-04-08T12:55:29;29.90;;;12.82;;
78927;SDS011;68322;22.726;113.540;2023-04-08T12:57:55;35.45;;;14.70;;
78927;SDS011;68322;22.726;113.540;2023-04-08T13:00:22;33.53;;;14.48;;
78927;SDS011;68322;22.726;113.540;2023-04-08T13:02:50;36.40;;;14.02;;
78927;SDS011;68322;22.726;113.540;2023-04-08T13:05:17;35.67;;;14.93;;
78927;SDS011;68322;22.726;113.540;2023-04-08T13:07:46;38.33;;;16.23;;
78927;SDS011;68322;22.726;113.540;2023-04-08T13:10:13;38.92;;;15.57;;
78927;SDS011;68322;22.726;113.540;2023-04-08T13:12:41;34.10;;;14.57;;
78927;SDS011;68322;22.726;113.540;2023-04-08T13:15:10;38.42;;;15.18;;
78927;SDS011;68322;22.726;113.540;2023-04-08T13:17:40;32.08;;;13.32;;
78927;SDS011;68322;22.726;113.540;2023-04-08T13:20:09;36.70;;;12.75;;
78927;SDS011;68322;22.726;113.540;2023-04-08T13:22:36;36.08;;;12.65;;
78927;SDS011;68322;22.726;113.540;2023-04-08T13:25:05;34.72;;;13.55;;
78927;SDS011;68322;22.726;113.540;2023-04-08T13:27:32;37.60;;;13.70;;
78927;SDS011;68322;22.726;113.540;2023-04-08T13:29:59;32.42;;;12.68;;
78927;SDS011;68322;22.726;113.540;2023-04-08T13:32:26;40.10;;;13.50;;
78927;SDS011;68322;22.726;113.540;2023-04-08T13:34:52;38.85;;;13.27;;
78927;SDS011;68322;22.726;113.540;2023-04-08T13:37:19;32.22;;;13.32;;
78927;SDS011;68322;22.726;113.540;2023-04-08T13:39:46;31.63;;;12.20;;
78927;SDS011;68322;22.726;113.540;2023-04-08T13:42:13;32.63;;;13.15;;
78927;SDS011;68322;22.726;113.540;2023-04-08T13:44:40;27.27;;;12.23;;
78927;SDS011;68322;22.726;113.540;2023-04-08T13:47:10;39.20;;;13.35;;
78927;SDS011;68322;22.726;113.540;2023-04-08T13:49:37;33.30;;;13.05;;
78927;SDS011;68322;22.726;113.540;2023-04-08T13:52:06;28.52;;;13.35;;
78927;SDS011;68322;22.726;113.540;2023-04-08T13:54:33;31.50;;;12.68;;
78927;SDS011;68322;22.726;113.540;2023-04-08T13:57:00;32.38;;;14.05;;
78927;SDS011;68322;22.726;113.540;2023-04-08T13:59:28;37.60;;;14.45;;
78927;SDS011;68322;22.726;113.540;2023-04-08T14:01:58;31.58;;;13.30;;
78927;SDS011;68322;22.726;113.540;2023-04-08T14:04:24;31.35;;;12.48;;
78927;SDS011;68322;22.726;113.540;2023-04-08T14:06:51;28.58;;;13.68;;
78927;SDS011;68322;22.726;113.540;2023-04-08T14:09:18;32.83;;;13.07;;
78927;SDS011;68322;22.726;113.540;2023-04-08T14:11:45;34.40;;;13.55;;
78927;SDS011;68322;22.726;113.540;2023-04-08T14:14:12;34.47;;;12.57;;
78927;SDS011;68322;22.726;113.540;2023-04-08T14:16:40;41.55;;;12.90;;
78927;SDS011;68322;22.726;113.540;2023-04-08T14:19:10;31.25;;;12.95;;
78927;SDS011;68322;22.726;113.540;2023-04-08T14:21:40;38.00;;;14.45;;
78927;SDS011;68322;22.726;113.540;2023-04-08T14:24:07;40.97;;;14.27;;
78927;SDS011;68322;22.726;113.540;2023-04-08T14:26:34;27.00;;;12.73;;
78927;SDS011;68322;22.726;113.540;2023-04-08T14:29:04;35.13;;;13.77;;
78927;SDS011;68322;22.726;113.540;2023-04-08T14:31:31;36.08;;;12.57;;
78927;SDS011;68322;22.726;113.540;2023-04-08T14:34:00;30.23;;;14.13;;
78927;SDS011;68322;22.726;113.540;2023-04-08T14:36:27;32.63;;;14.35;;
78927;SDS011;68322;22.726;113.540;2023-04-08T14:38:54;37.45;;;15.40;;
78927;SDS011;68322;22.726;113.540;2023-04-08T14:41:21;37.65;;;14.13;;
78927;SDS011;68322;22.726;113.540;2023-04-08T14:43:50;27.35;;;13.10;;
78927;SDS011;68322;22.726;113.540;2023-04-08T14:46:18;44.03;;;15.98;;
78927;SDS011;68322;22.726;113.540;2023-04-08T14:48:45;37.55;;;16.52;;
78927;SDS011;68322;22.726;113.540;2023-04-08T14:51:13;33.72;;;16.08;;
78927;SDS011;68322;22.726;113.540;2023-04-08T14:53:40;47.85;;;15.93;;